Time;durP1;ratioP1;P1;durP2;ratioP2;P2;SDS_P1;SDS_P2;PMS_P1;PMS_P2;Temp;Humidity;BMP_temperature;BMP_pressure;BME280_temperature;BME280_humidity;BME280_pressure;Samples;Min_cycle;Max_cycle;Signal;HPM_P1;HPM_P2
2021/09/05 00:02:28;;;;;;;11.63;7.27;;;14.20;99.90;;;;;;21122181;28;20056;-78
2021/09/05 00:12:28;;;;;;;15.57;7.33;;;13.80;99.90;;;;;;21105317;28;20058;-77
2021/09/05 00:22:29;;;;;;;11.43;6.93;;;13.90;99.90;;;;;;21112590;28;20032;-79
2021/09/05 00:32:31;;;;;;;9.68;7.15;;;14.00;99.90;;;;;;21089302;28;20086;-78
2021/09/05 00:42:32;;;;;;;43.87;9.10;;;13.80;99.90;;;;;;21006548;28;20036;-78
2021/09/05 00:52:32;;;;;;;11.90;7.87;;;13.60;99.90;;;;;;20995932;28;20036;-79
2021/09/05 01:02:35;;;;;;;12.95;7.38;;;13.80;99.90;;;;;;21008374;28;20036;-78
2021/09/05 01:12:36;;;;;;;11.83;6.47;;;13.60;99.90;;;;;;20985811;28;20037;-78
2021/09/05 01:22:37;;;;;;;11.63;6.43;;;13.40;99.90;;;;;;20994452;28;20530;-77
2021/09/05 01:32:56;;;;;;;9.38;5.90;;;13.50;99.90;;;;;;21038443;28;20571;-77
2021/09/05 01:43:18;;;;;;;9.30;6.20;;;13.40;99.90;;;;;;21032222;28;20430;-77
2021/09/05 01:54:00;;;;;;;11.13;6.50;;;13.40;99.90;;;;;;21071970;28;20039;-77
2021/09/05 02:04:20;;;;;;;9.73;5.93;;;13.70;99.90;;;;;;21085501;28;20111;-77
2021/09/05 02:14:44;;;;;;;10.13;5.85;;;13.70;99.90;;;;;;21084333;28;20044;-77
2021/09/05 02:25:09;;;;;;;11.77;6.50;;;13.50;99.90;;;;;;21078314;22;20052;-79
2021/09/05 02:35:28;;;;;;;14.85;8.68;;;13.30;99.90;;;;;;21003608;28;20037;-79
2021/09/05 02:45:52;;;;;;;13.15;6.75;;;13.50;99.90;;;;;;21019135;28;20105;-79
2021/09/05 02:56:12;;;;;;;10.73;6.30;;;13.30;99.90;;;;;;21021166;28;20040;-77
2021/09/05 03:06:17;;;;;;;11.00;6.60;;;13.40;99.90;;;;;;21018973;28;20032;-77
2021/09/05 03:16:54;;;;;;;14.70;6.70;;;13.50;99.90;;;;;;21001032;28;20043;-79
2021/09/05 03:27:14;;;;;;;10.30;6.40;;;13.60;99.90;;;;;;20986987;28;20664;-79
2021/09/05 03:37:45;;;;;;;13.95;8.07;;;13.60;99.90;;;;;;21003001;28;20037;-79
2021/09/05 03:48:04;;;;;;;16.77;7.78;;;13.70;99.90;;;;;;21018179;28;20036;-80
2021/09/05 03:58:27;;;;;;;13.55;7.95;;;13.60;99.90;;;;;;20998658;28;20042;-80
2021/09/05 04:18:58;;;;;;;9.43;6.63;;;13.10;99.90;;;;;;21007914;28;20063;-80
2021/09/05 04:28:59;;;;;;;40.37;7.53;;;12.80;99.90;;;;;;20991569;28;20032;-79
2021/09/05 04:39:00;;;;;;;10.53;6.53;;;12.80;99.90;;;;;;21008644;28;20035;-78
2021/09/05 04:49:01;;;;;;;10.80;7.43;;;12.40;99.90;;;;;;20990202;28;20028;-79
2021/09/05 04:59:02;;;;;;;15.77;8.80;;;12.60;99.90;;;;;;21019672;28;20034;-78
2021/09/05 05:09:03;;;;;;;21.53;9.47;;;12.90;99.90;;;;;;21035408;28;20028;-79
2021/09/05 05:19:04;;;;;;;14.97;9.33;;;13.30;99.90;;;;;;21033197;28;20289;-78
2021/09/05 05:29:05;;;;;;;12.20;8.57;;;13.40;99.90;;;;;;21016272;28;20040;-78
2021/09/05 05:39:06;;;;;;;16.77;9.20;;;13.50;99.90;;;;;;21064581;28;20024;-78
2021/09/05 05:49:06;;;;;;;17.60;10.23;;;13.60;99.90;;;;;;21012788;28;20030;-78
2021/09/05 05:59:07;;;;;;;12.10;9.27;;;13.80;99.90;;;;;;21030892;28;20089;-78
2021/09/05 06:09:08;;;;;;;15.20;9.23;;;14.20;99.90;;;;;;21033573;28;20031;-78
2021/09/05 06:19:09;;;;;;;12.50;9.00;;;14.60;99.90;;;;;;21073800;28;20099;-78
2021/09/05 06:29:10;;;;;;;17.27;8.90;;;15.00;99.90;;;;;;21064501;28;20101;-79
2021/09/05 06:39:11;;;;;;;17.23;8.10;;;15.30;99.90;;;;;;21057002;28;20139;-78
2021/09/05 06:49:11;;;;;;;9.70;6.97;;;15.90;99.90;;;;;;21055833;28;20028;-78
2021/09/05 06:59:12;;;;;;;9.90;6.57;;;16.50;99.90;;;;;;21066510;28;20039;-78
2021/09/05 07:09:13;;;;;;;9.63;6.33;;;17.00;99.90;;;;;;21045299;28;20497;-79
2021/09/05 07:19:14;;;;;;;11.37;6.97;;;17.40;99.90;;;;;;21058706;28;20043;-78
2021/09/05 07:29:17;;;;;;;11.67;6.63;;;17.50;99.90;;;;;;21062922;28;20520;-78
2021/09/05 07:39:18;;;;;;;10.40;6.63;;;18.00;99.90;;;;;;21070906;28;20398;-78
2021/09/05 07:49:19;;;;;;;9.77;6.10;;;18.90;99.90;;;;;;21012020;28;20039;-77
2021/09/05 07:59:20;;;;;;;8.30;5.73;;;19.50;99.90;;;;;;21020478;28;20104;-77
2021/09/05 08:09:20;;;;;;;14.20;5.60;;;20.20;99.90;;;;;;21011114;28;20064;-78
2021/09/05 08:19:21;;;;;;;6.40;4.43;;;20.60;99.90;;;;;;21031010;28;20440;-78
2021/09/05 08:29:22;;;;;;;6.90;5.10;;;21.60;99.90;;;;;;21076555;28;20035;-79
2021/09/05 08:39:26;;;;;;;9.53;5.77;;;21.90;99.90;;;;;;20997620;28;20037;-78
2021/09/05 08:49:32;;;;;;;9.23;5.47;;;22.30;99.90;;;;;;20998562;28;20506;-79
2021/09/05 08:59:32;;;;;;;7.40;5.18;;;23.30;99.90;;;;;;20980961;28;20032;-80
2021/09/05 09:09:33;;;;;;;8.27;4.63;;;23.40;99.90;;;;;;20984358;28;20035;-79
2021/09/05 09:19:34;;;;;;;;;;;24.70;99.90;;;;;;20983794;28;20117;-80
2021/09/05 09:29:36;;;;;;;6.55;4.78;;;24.40;99.90;;;;;;20983758;28;19917;-77
2021/09/05 09:39:46;;;;;;;8.40;4.68;;;25.30;99.90;;;;;;20982499;28;20458;-80
2021/09/05 09:49:51;;;;;;;9.52;4.97;;;26.20;99.90;;;;;;20983009;28;20740;-79
2021/09/05 09:59:52;;;;;;;14.38;4.75;;;27.10;99.90;;;;;;20996289;28;20033;-77
2021/09/05 10:09:52;;;;;;;6.43;4.78;;;27.10;99.90;;;;;;20975052;28;20043;-79
2021/09/05 10:19:54;;;;;;;10.00;3.95;;;27.60;99.90;;;;;;20994394;28;20028;-80
2021/09/05 10:30:07;;;;;;;5.18;4.00;;;27.50;99.90;;;;;;20994084;28;20032;-78
2021/09/05 10:40:10;;;;;;;5.22;3.50;;;28.20;99.90;;;;;;20992232;28;20044;-80
2021/09/05 10:50:30;;;;;;;5.35;3.60;;;28.70;99.90;;;;;;20996082;28;20457;-80
2021/09/05 11:00:31;;;;;;;6.30;3.80;;;28.20;99.90;;;;;;20992485;28;20032;-78
2021/09/05 11:10:48;;;;;;;5.93;3.72;;;29.50;99.90;;;;;;20997070;28;20489;-79
2021/09/05 11:20:50;;;;;;;8.18;3.85;;;28.70;99.90;;;;;;20989341;28;20036;-77
2021/09/05 11:30:57;;;;;;;7.07;4.00;;;30.30;99.90;;;;;;20987820;28;20032;-77
2021/09/05 11:41:01;;;;;;;7.70;4.15;;;29.60;99.90;;;;;;20986617;28;20036;-77
2021/09/05 11:51:04;;;;;;;6.45;4.32;;;30.70;99.90;;;;;;20985029;28;20029;-79
2021/09/05 12:01:06;;;;;;;5.28;3.70;;;30.10;99.90;;;;;;21024593;28;20035;-78
2021/09/05 12:11:07;;;;;;;5.85;4.35;;;30.10;99.90;;;;;;21007629;28;20697;-78
2021/09/05 12:21:10;;;;;;;5.95;3.50;;;30.40;99.90;;;;;;21011821;28;20457;-79
2021/09/05 12:31:11;;;;;;;5.25;3.92;;;31.30;99.90;;;;;;20976215;28;1175116;-79
2021/09/05 12:41:15;;;;;;;5.63;3.90;;;30.10;99.90;;;;;;21018263;28;20518;-78
2021/09/05 12:51:20;;;;;;;5.82;3.63;;;30.40;99.90;;;;;;20987696;28;20037;-78
2021/09/05 13:01:29;;;;;;;5.55;3.72;;;29.80;99.90;;;;;;20981579;28;20032;-76
2021/09/05 13:11:31;;;;;;;6.68;3.97;;;30.20;99.90;;;;;;20959048;28;20044;-77
2021/09/05 13:21:32;;;;;;;5.60;3.25;;;30.70;99.90;;;;;;20996749;28;20036;-79
2021/09/05 13:31:33;;;;;;;3.97;3.25;;;30.70;99.90;;;;;;20996095;28;20072;-78
2021/09/05 13:41:34;;;;;;;5.60;3.60;;;30.80;99.90;;;;;;20994450;28;20032;-78
2021/09/05 13:51:37;;;;;;;7.40;3.25;;;31.30;99.90;;;;;;20976421;28;20032;-78
2021/09/05 14:01:38;;;;;;;7.97;3.53;;;31.10;99.90;;;;;;20997925;28;20487;-80
2021/09/05 14:11:39;;;;;;;6.05;3.00;;;30.00;99.90;;;;;;20998632;28;20286;-80
2021/09/05 14:21:40;;;;;;;4.50;2.92;;;29.70;99.90;;;;;;20996257;28;20821;-81
2021/09/05 14:31:55;;;;;;;5.32;2.92;;;30.40;99.90;;;;;;21014505;22;20752;-78
2021/09/05 15:02:43;;;;;;;4.72;3.17;;;30.80;99.90;;;;;;21034199;28;20020;-78
2021/09/05 15:12:43;;;;;;;7.35;3.45;;;30.50;99.90;;;;;;21024775;28;20528;-78
2021/09/05 15:22:45;;;;;;;7.50;3.75;;;29.80;99.90;;;;;;20993740;28;20064;-78
2021/09/05 15:53:21;;;;;;;4.75;2.80;;;26.50;99.90;;;;;;21052193;28;20042;-77
2021/09/05 16:03:33;;;;;;;3.67;2.63;;;25.80;99.90;;;;;;21034171;28;20123;-77
2021/09/05 16:23:56;;;;;;;5.78;2.80;;;24.80;99.90;;;;;;21056975;28;20093;-77
2021/09/05 16:33:59;;;;;;;8.10;3.10;;;24.70;99.90;;;;;;21048702;28;20192;-77
2021/09/05 16:44:00;;;;;;;4.00;2.90;;;24.60;99.90;;;;;;21050624;28;20046;-78
2021/09/05 16:54:01;;;;;;;6.38;2.67;;;24.30;99.90;;;;;;21050968;28;20550;-77
2021/09/05 17:04:02;;;;;;;3.87;2.93;;;24.20;99.90;;;;;;21076027;28;20534;-77
2021/09/05 17:14:03;;;;;;;5.70;2.78;;;23.90;99.90;;;;;;21116249;28;20293;-75
2021/09/05 17:24:05;;;;;;;3.75;2.85;;;23.90;99.90;;;;;;21073434;28;20027;-76
2021/09/05 17:34:06;;;;;;;3.10;2.43;;;23.40;99.90;;;;;;21071159;28;20036;-77
2021/09/05 17:44:09;;;;;;;4.45;2.78;;;23.10;99.90;;;;;;21056552;28;20494;-78
2021/09/05 17:54:10;;;;;;;7.25;3.08;;;22.60;99.90;;;;;;21075619;28;20038;-76
2021/09/05 18:04:12;;;;;;;3.78;2.55;;;22.20;99.90;;;;;;21067799;28;20051;-78
2021/09/05 18:14:13;;;;;;;;;;;22.10;99.90;;;;;;21074272;28;20024;-77
2021/09/05 18:24:14;;;;;;;4.43;2.92;;;21.20;99.90;;;;;;21071328;28;19962;-77
2021/09/05 18:34:15;;;;;;;6.07;3.40;;;20.70;99.90;;;;;;21120327;28;20115;-77
2021/09/05 18:44:17;;;;;;;5.77;3.90;;;20.40;99.90;;;;;;21078432;28;20028;-76
2021/09/05 18:54:18;;;;;;;6.27;3.43;;;20.20;99.90;;;;;;21116163;27;20031;-77
2021/09/05 19:04:20;;;;;;;3.78;3.00;;;20.10;99.90;;;;;;21061164;28;20027;-77
2021/09/05 19:14:22;;;;;;;6.72;3.78;;;19.70;99.90;;;;;;21082880;28;20064;-78
2021/09/05 19:24:23;;;;;;;5.10;3.70;;;19.80;99.90;;;;;;21053227;28;20055;-77
2021/09/05 19:34:24;;;;;;;6.33;3.73;;;19.30;99.90;;;;;;21063966;28;20128;-76
2021/09/05 19:44:25;;;;;;;6.87;3.80;;;19.10;99.90;;;;;;21092072;28;20135;-77
2021/09/05 19:54:26;;;;;;;6.60;3.73;;;19.00;99.90;;;;;;21088590;28;20036;-77
2021/09/05 20:04:27;;;;;;;5.70;3.67;;;18.90;99.90;;;;;;21078324;28;20294;-76
2021/09/05 20:14:28;;;;;;;5.37;3.57;;;18.70;99.90;;;;;;21086284;28;20039;-76
2021/09/05 20:24:30;;;;;;;10.13;4.07;;;18.60;99.90;;;;;;21065259;27;20036;-77
2021/09/05 20:34:30;;;;;;;5.87;4.30;;;18.30;99.90;;;;;;21075144;28;20055;-78
2021/09/05 20:44:31;;;;;;;6.63;4.40;;;18.20;99.90;;;;;;21111234;28;20035;-79
2021/09/05 20:54:32;;;;;;;7.07;4.40;;;18.10;99.90;;;;;;21095648;28;20031;-78
2021/09/05 21:04:35;;;;;;;7.70;4.17;;;17.90;99.90;;;;;;21094715;28;20073;-77
2021/09/05 21:14:36;;;;;;;7.40;4.28;;;17.80;99.90;;;;;;21131741;28;20067;-78
2021/09/05 21:24:37;;;;;;;5.73;4.00;;;17.90;99.90;;;;;;21090490;28;20036;-77
2021/09/05 21:34:38;;;;;;;8.07;4.27;;;17.80;99.90;;;;;;21117039;28;20027;-77
2021/09/05 21:44:39;;;;;;;7.23;4.07;;;17.90;99.90;;;;;;21127824;28;20028;-77
2021/09/05 21:54:39;;;;;;;6.60;4.10;;;17.90;99.90;;;;;;21177543;28;20027;-77
2021/09/05 22:04:40;;;;;;;5.27;3.73;;;17.80;99.90;;;;;;21170093;28;20035;-77
2021/09/05 22:14:41;;;;;;;5.27;3.70;;;17.80;99.90;;;;;;21175114;28;20502;-77
2021/09/05 22:24:42;;;;;;;5.63;3.90;;;16.70;99.90;;;;;;21102892;28;20085;-77
2021/09/05 22:34:43;;;;;;;6.97;4.60;;;16.20;99.90;;;;;;21078949;28;20025;-77
2021/09/05 22:44:44;;;;;;;5.43;4.00;;;15.80;99.90;;;;;;21007813;28;20137;-78
2021/09/05 22:54:45;;;;;;;7.53;3.93;;;16.00;99.90;;;;;;21012623;28;20036;-78
2021/09/05 23:04:46;;;;;;;7.67;4.40;;;15.60;99.90;;;;;;21006078;28;20642;-77
2021/09/05 23:14:47;;;;;;;7.27;4.00;;;16.40;99.90;;;;;;21009479;28;20052;-77
2021/09/05 23:24:47;;;;;;;4.10;3.37;;;16.50;99.90;;;;;;21091822;28;20104;-77
2021/09/05 23:34:48;;;;;;;5.23;3.40;;;16.60;99.90;;;;;;21188440;28;20039;-77
2021/09/05 23:44:50;;;;;;;6.33;3.43;;;16.70;99.90;;;;;;20906640;22;20403;-77
2021/09/05 23:54:51;;;;;;;6.43;3.47;;;16.70;99.90;;;;;;20748827;28;20042;-77
